Time;durP1;ratioP1;P1;durP2;ratioP2;P2;SDS_P1;SDS_P2;PMS_P1;PMS_P2;Temp;Humidity;BMP_temperature;BMP_pressure;BME280_temperature;BME280_humidity;BME280_pressure;Samples;Min_cycle;Max_cycle;Signal;HPM_P1;HPM_P2
2022/12/01 00:02:58;;;;;;;25.43;22.50;;;8.30;99.90;;;;;;10397913;28;20640;-80
2022/12/01 00:08:03;;;;;;;28.83;23.67;;;8.30;99.90;;;;;;10398883;28;20224;-80
2022/12/01 00:13:06;;;;;;;25.63;22.10;;;8.30;99.90;;;;;;10418555;28;20597;-79
2022/12/01 00:18:10;;;;;;;30.33;24.77;;;8.30;99.90;;;;;;10418371;28;20193;-79
2022/12/01 00:23:13;;;;;;;28.20;23.40;;;8.30;99.90;;;;;;10385292;28;20218;-79
2022/12/01 00:28:15;;;;;;;27.10;22.37;;;8.30;99.90;;;;;;10396683;28;20237;-78
2022/12/01 00:33:17;;;;;;;29.87;23.67;;;8.30;99.90;;;;;;10412155;28;20225;-79
2022/12/01 00:38:20;;;;;;;26.87;22.07;;;8.20;99.90;;;;;;10381175;28;20725;-79
2022/12/01 00:43:30;;;;;;;28.10;23.17;;;8.10;99.90;;;;;;10396484;28;20233;-79
2022/12/01 00:48:32;;;;;;;28.50;23.00;;;8.20;99.90;;;;;;10395956;28;20648;-80
2022/12/01 00:53:38;;;;;;;25.30;21.60;;;8.20;99.90;;;;;;10414597;28;20221;-80
2022/12/01 00:58:45;;;;;;;24.40;21.80;;;8.20;99.90;;;;;;10396096;28;20718;-80
2022/12/01 01:03:53;;;;;;;26.90;21.90;;;8.20;99.90;;;;;;10395427;28;20743;-80
2022/12/01 01:08:57;;;;;;;24.57;20.70;;;8.20;99.90;;;;;;10407693;23;20221;-81
2022/12/01 01:13:59;;;;;;;26.13;21.73;;;8.20;99.90;;;;;;10374797;28;20225;-81
2022/12/01 01:19:01;;;;;;;23.00;20.20;;;8.20;99.90;;;;;;10378937;28;20242;-80
2022/12/01 01:24:06;;;;;;;24.20;21.70;;;8.20;99.90;;;;;;10390289;28;20201;-81
2022/12/01 01:29:11;;;;;;;23.80;21.20;;;8.20;99.90;;;;;;10378257;28;20293;-82
2022/12/01 01:34:13;;;;;;;23.27;20.77;;;8.20;99.90;;;;;;10396240;28;20678;-82
2022/12/01 01:39:17;;;;;;;24.43;21.23;;;8.20;99.90;;;;;;10379441;28;20210;-82
2022/12/01 01:44:49;;;;;;;23.93;21.33;;;8.20;99.90;;;;;;10387006;28;20217;-83
2022/12/01 01:49:51;;;;;;;27.20;22.40;;;8.10;99.90;;;;;;10383718;28;20662;-82
2022/12/01 01:54:56;;;;;;;24.97;21.60;;;8.10;99.90;;;;;;10384639;28;20198;-82
2022/12/01 02:00:02;;;;;;;25.10;22.17;;;8.10;99.90;;;;;;10384913;28;20210;-82
2022/12/01 02:05:18;;;;;;;25.07;21.70;;;8.10;99.90;;;;;;10382998;28;20265;-80
2022/12/01 02:10:29;;;;;;;24.77;21.07;;;8.10;99.90;;;;;;10393718;28;20229;-80
2022/12/01 02:15:37;;;;;;;25.30;22.20;;;8.00;99.90;;;;;;10371480;28;20233;-80
2022/12/01 02:21:10;;;;;;;24.60;21.53;;;8.00;99.90;;;;;;10374411;28;20226;-81
2022/12/01 02:26:33;;;;;;;26.43;22.43;;;7.90;99.90;;;;;;10375306;28;20217;-80
2022/12/01 02:31:41;;;;;;;25.90;21.87;;;7.90;99.90;;;;;;10388206;28;20218;-81
2022/12/01 02:36:49;;;;;;;22.93;20.50;;;7.90;99.90;;;;;;10377101;28;20550;-81
2022/12/01 02:41:56;;;;;;;27.03;22.57;;;7.90;99.90;;;;;;10394634;28;20297;-81
2022/12/01 02:47:04;;;;;;;23.53;21.00;;;7.90;99.90;;;;;;10402097;28;20257;-81
2022/12/01 02:52:07;;;;;;;24.73;20.70;;;7.80;99.90;;;;;;10395889;28;20277;-80
2022/12/01 02:57:11;;;;;;;25.17;21.43;;;7.80;99.90;;;;;;10393288;28;20210;-80
2022/12/01 03:02:24;;;;;;;25.10;22.17;;;7.80;99.90;;;;;;10397095;28;20277;-80
2022/12/01 03:07:45;;;;;;;24.93;21.80;;;7.80;99.90;;;;;;10404965;28;20218;-80
2022/12/01 03:13:03;;;;;;;24.60;21.57;;;7.80;99.90;;;;;;10370845;28;20678;-80
2022/12/01 03:18:16;;;;;;;24.87;21.63;;;7.80;99.90;;;;;;10390298;28;20205;-80
2022/12/01 03:23:21;;;;;;;27.37;22.27;;;7.80;99.90;;;;;;10361394;28;20760;-80
2022/12/01 03:28:28;;;;;;;23.97;20.37;;;7.70;99.90;;;;;;10345037;28;20431;-81
2022/12/01 03:33:36;;;;;;;25.70;22.90;;;7.70;99.90;;;;;;10379410;28;20216;-81
2022/12/01 03:38:39;;;;;;;26.53;22.77;;;7.70;99.90;;;;;;10378107;28;20693;-81
2022/12/01 03:43:49;;;;;;;25.73;22.43;;;7.70;99.90;;;;;;10359560;28;20548;-81
2022/12/01 03:48:53;;;;;;;26.20;22.63;;;7.70;99.90;;;;;;10378673;28;20222;-80
2022/12/01 03:54:02;;;;;;;23.80;21.23;;;7.70;99.90;;;;;;10361441;28;20270;-81
2022/12/01 03:59:07;;;;;;;24.90;21.73;;;7.80;99.90;;;;;;10379457;28;20230;-81
2022/12/01 04:04:12;;;;;;;23.83;21.10;;;7.70;99.90;;;;;;10362474;28;20293;-80
2022/12/01 04:09:15;;;;;;;23.17;20.67;;;7.70;99.90;;;;;;10380038;28;20277;-80
2022/12/01 04:14:17;;;;;;;29.30;24.27;;;7.70;99.90;;;;;;10381240;28;20205;-81
2022/12/01 04:19:20;;;;;;;23.90;21.30;;;7.60;99.90;;;;;;10380290;28;20244;-81
2022/12/01 04:24:22;;;;;;;22.97;20.57;;;7.60;99.90;;;;;;10381380;28;20199;-81
2022/12/01 04:29:24;;;;;;;24.90;22.20;;;7.60;99.90;;;;;;10365514;28;20313;-81
2022/12/01 04:34:27;;;;;;;25.80;22.97;;;7.60;99.90;;;;;;10381313;28;20211;-81
2022/12/01 04:39:30;;;;;;;27.00;24.10;;;7.60;99.90;;;;;;10343138;28;20272;-81
2022/12/01 04:44:32;;;;;;;26.97;23.50;;;7.60;99.90;;;;;;10378278;28;20230;-81
2022/12/01 04:49:36;;;;;;;23.30;20.57;;;7.60;99.90;;;;;;10365341;28;20701;-81
2022/12/01 04:54:38;;;;;;;24.90;22.20;;;7.70;99.90;;;;;;10376725;28;20620;-80
2022/12/01 04:59:40;;;;;;;25.40;21.83;;;7.60;99.90;;;;;;10370305;28;20218;-80
2022/12/01 05:04:46;;;;;;;24.73;22.00;;;7.60;99.90;;;;;;10377051;28;20669;-81
2022/12/01 05:09:48;;;;;;;27.03;24.13;;;7.60;99.90;;;;;;10377221;28;20545;-81
2022/12/01 05:14:51;;;;;;;26.10;22.43;;;7.60;99.90;;;;;;10359282;28;20202;-81
2022/12/01 05:25:16;;;;;;;27.70;22.90;;;7.60;99.90;;;;;;10339664;28;20199;-81
2022/12/01 05:30:18;;;;;;;25.93;22.73;;;7.60;99.90;;;;;;10380435;28;20218;-81
2022/12/01 05:35:22;;;;;;;26.83;22.70;;;7.60;99.90;;;;;;10363882;28;20199;-81
2022/12/01 05:40:24;;;;;;;25.37;22.30;;;7.60;99.90;;;;;;10364920;28;20229;-81
2022/12/01 05:45:26;;;;;;;26.50;23.47;;;7.60;99.90;;;;;;10362076;28;20289;-79
2022/12/01 05:50:30;;;;;;;28.40;24.50;;;7.60;99.90;;;;;;10362223;28;20313;-80
2022/12/01 05:55:33;;;;;;;26.03;23.23;;;7.70;99.90;;;;;;10385660;28;20557;-80
2022/12/01 06:00:35;;;;;;;27.07;24.17;;;7.60;99.90;;;;;;10381100;28;20663;-80
2022/12/01 06:05:39;;;;;;;26.37;23.57;;;7.60;99.90;;;;;;10381456;28;20226;-80
2022/12/01 06:10:41;;;;;;;28.50;25.40;;;7.60;99.90;;;;;;10356220;28;20708;-80
2022/12/01 06:15:44;;;;;;;28.87;24.77;;;7.50;99.90;;;;;;10383173;28;20257;-80
2022/12/01 06:20:47;;;;;;;30.03;24.00;;;7.50;99.90;;;;;;10385987;28;20563;-80
2022/12/01 06:25:49;;;;;;;30.03;26.70;;;7.50;99.90;;;;;;10367529;28;20195;-80
2022/12/01 06:30:51;;;;;;;28.97;25.70;;;7.50;99.90;;;;;;10380740;28;20230;-80
2022/12/01 06:35:58;;;;;;;28.80;25.70;;;7.40;99.90;;;;;;10376296;28;20199;-80
2022/12/01 06:41:01;;;;;;;29.73;25.63;;;7.40;99.90;;;;;;10357227;28;20559;-80
2022/12/01 06:46:03;;;;;;;29.53;26.37;;;7.40;99.90;;;;;;10360383;28;20205;-80
2022/12/01 06:51:07;;;;;;;28.77;25.70;;;7.40;99.90;;;;;;10379288;28;20226;-80
2022/12/01 06:56:09;;;;;;;30.57;25.77;;;7.50;99.90;;;;;;10378692;28;20281;-81
2022/12/01 07:01:12;;;;;;;33.33;28.47;;;7.50;99.90;;;;;;10341602;28;20597;-80
2022/12/01 07:06:16;;;;;;;29.00;24.80;;;7.50;99.90;;;;;;10374122;28;20202;-80
2022/12/01 07:11:18;;;;;;;30.03;26.07;;;7.60;99.90;;;;;;10377550;28;20227;-79
2022/12/01 07:16:21;;;;;;;28.40;25.30;;;7.60;99.90;;;;;;10364598;28;20234;-79
2022/12/01 07:21:24;;;;;;;27.83;24.87;;;7.60;99.90;;;;;;10378870;28;20242;-79
2022/12/01 07:26:26;;;;;;;29.70;26.50;;;7.50;99.90;;;;;;10379339;28;20214;-80
2022/12/01 07:31:28;;;;;;;28.63;24.53;;;7.50;99.90;;;;;;10361297;28;20284;-80
2022/12/01 07:36:32;;;;;;;38.47;26.33;;;7.50;99.90;;;;;;10379352;28;20268;-79
2022/12/01 07:41:35;;;;;;;29.00;25.67;;;7.60;99.90;;;;;;10379679;28;20717;-80
2022/12/01 07:46:37;;;;;;;31.73;25.03;;;7.60;99.90;;;;;;10368714;28;20305;-80
2022/12/01 07:51:41;;;;;;;29.13;25.77;;;7.50;99.90;;;;;;10381868;28;20238;-79
2022/12/01 07:56:43;;;;;;;29.50;25.13;;;7.60;99.90;;;;;;10384230;28;20300;-79
2022/12/01 08:01:45;;;;;;;27.93;24.27;;;7.60;99.90;;;;;;10378686;28;20210;-80
2022/12/01 08:06:48;;;;;;;29.50;25.50;;;7.70;99.90;;;;;;10362463;28;20210;-79
2022/12/01 08:11:50;;;;;;;28.30;24.63;;;7.60;99.90;;;;;;10354753;28;20241;-79
2022/12/01 08:16:52;;;;;;;29.50;26.23;;;7.70;99.90;;;;;;10363387;28;20209;-79
2022/12/01 08:21:56;;;;;;;27.03;24.20;;;7.70;99.90;;;;;;10358300;28;20245;-79
2022/12/01 08:26:59;;;;;;;26.23;23.40;;;7.70;99.90;;;;;;10367052;28;20198;-79
2022/12/01 08:32:01;;;;;;;25.93;23.03;;;7.70;99.90;;;;;;10376316;28;20253;-79
2022/12/01 08:37:05;;;;;;;26.03;23.13;;;7.70;99.90;;;;;;10376324;28;20241;-79
2022/12/01 08:42:07;;;;;;;27.70;23.40;;;7.70;99.90;;;;;;10376106;28;20314;-79
2022/12/01 08:47:09;;;;;;;25.00;22.30;;;7.80;99.90;;;;;;10371549;28;20245;-79
2022/12/01 08:52:12;;;;;;;26.20;23.40;;;7.80;99.90;;;;;;10376767;28;20207;-79
2022/12/01 08:57:14;;;;;;;33.00;23.30;;;7.80;99.90;;;;;;10359281;28;20221;-79
2022/12/01 09:02:22;;;;;;;27.10;24.17;;;7.80;99.90;;;;;;10377547;28;20217;-79
2022/12/01 09:07:25;;;;;;;27.33;23.80;;;7.90;99.90;;;;;;10377176;28;20219;-80
2022/12/01 09:12:29;;;;;;;26.80;23.43;;;7.90;99.90;;;;;;10360173;28;20253;-80
2022/12/01 09:17:31;;;;;;;27.43;24.00;;;7.90;99.90;;;;;;10364643;28;20285;-80
2022/12/01 09:22:34;;;;;;;26.40;23.60;;;7.90;99.90;;;;;;10351905;28;20249;-78
2022/12/01 09:27:36;;;;;;;27.03;23.70;;;7.90;99.90;;;;;;10372832;28;20595;-80
2022/12/01 09:32:38;;;;;;;27.13;23.80;;;7.80;99.90;;;;;;10359125;28;20218;-80
2022/12/01 09:37:42;;;;;;;26.20;23.20;;;7.80;99.90;;;;;;10374178;28;20206;-80
2022/12/01 09:42:46;;;;;;;25.00;22.30;;;7.80;99.90;;;;;;10369279;28;20231;-79
2022/12/01 09:48:02;;;;;;;25.93;23.10;;;7.90;99.90;;;;;;10344623;28;20265;-79
2022/12/01 09:53:08;;;;;;;26.00;23.20;;;7.90;99.90;;;;;;10363476;28;20633;-80
2022/12/01 09:58:17;;;;;;;24.70;22.00;;;8.00;99.90;;;;;;10345722;28;20270;-80
2022/12/01 10:03:28;;;;;;;27.23;22.27;;;7.90;99.90;;;;;;10370441;28;20333;-80
2022/12/01 10:08:36;;;;;;;23.87;21.30;;;7.90;99.90;;;;;;10347475;28;20214;-80
2022/12/01 10:13:39;;;;;;;23.93;20.67;;;7.90;99.90;;;;;;10379678;28;20639;-80
2022/12/01 10:18:52;;;;;;;25.10;22.40;;;7.90;99.90;;;;;;10368145;28;20203;-80
2022/12/01 10:24:10;;;;;;;25.00;22.37;;;8.00;99.90;;;;;;10379547;28;20229;-79
2022/12/01 10:29:16;;;;;;;25.27;22.30;;;8.00;99.90;;;;;;10379341;28;20310;-80
2022/12/01 10:34:22;;;;;;;26.83;23.80;;;8.00;99.90;;;;;;10368851;28;20241;-80
2022/12/01 10:39:29;;;;;;;31.77;26.33;;;8.00;99.90;;;;;;10378476;28;20626;-79
2022/12/01 10:44:32;;;;;;;25.27;22.33;;;8.00;99.90;;;;;;10370123;28;20661;-80
2022/12/01 10:49:37;;;;;;;27.63;21.67;;;8.00;99.90;;;;;;10376215;28;20305;-80
2022/12/01 10:54:41;;;;;;;24.80;22.17;;;8.00;99.90;;;;;;10366114;28;20309;-79
2022/12/01 10:59:50;;;;;;;24.60;22.00;;;8.00;99.90;;;;;;10375307;28;20245;-79
2022/12/01 11:04:55;;;;;;;25.00;22.30;;;8.00;99.90;;;;;;10378090;28;20214;-79
2022/12/01 11:10:16;;;;;;;25.97;22.67;;;8.10;99.90;;;;;;10379275;28;20278;-79
2022/12/01 11:15:22;;;;;;;27.17;23.47;;;8.10;99.90;;;;;;10374443;28;20198;-79
2022/12/01 11:20:28;;;;;;;23.90;21.33;;;8.10;99.90;;;;;;10375675;28;20230;-79
2022/12/01 11:25:32;;;;;;;24.73;22.07;;;8.20;99.90;;;;;;10374077;28;20722;-79
2022/12/01 11:30:34;;;;;;;26.00;21.90;;;8.20;99.90;;;;;;10360119;28;20226;-78
2022/12/01 11:35:38;;;;;;;24.53;21.83;;;8.30;99.90;;;;;;10373394;28;20202;-79
2022/12/01 11:40:51;;;;;;;27.17;23.27;;;8.30;99.90;;;;;;10373575;28;20218;-79
2022/12/01 11:46:02;;;;;;;27.70;22.00;;;8.30;99.90;;;;;;10370535;28;20229;-79
2022/12/01 11:51:07;;;;;;;23.93;21.40;;;8.30;99.90;;;;;;10354259;28;20214;-79
2022/12/01 11:56:22;;;;;;;24.10;21.50;;;8.30;99.90;;;;;;10368422;28;20194;-78
2022/12/01 12:01:36;;;;;;;25.17;20.83;;;8.30;99.90;;;;;;10371181;28;20218;-80
2022/12/01 12:06:47;;;;;;;26.10;22.97;;;8.40;99.90;;;;;;10319050;28;20623;-78
2022/12/01 12:11:59;;;;;;;27.63;22.47;;;8.40;99.90;;;;;;10355375;28;20219;-78
2022/12/01 12:17:25;;;;;;;24.67;21.53;;;8.40;99.90;;;;;;10390490;28;20286;-79
2022/12/01 12:22:38;;;;;;;25.20;22.53;;;8.40;99.90;;;;;;10371573;28;20218;-79
2022/12/01 12:27:50;;;;;;;25.17;22.50;;;8.40;99.90;;;;;;10375907;28;20229;-79
2022/12/01 12:33:23;;;;;;;22.40;19.97;;;8.40;99.90;;;;;;10363208;28;20595;-79
2022/12/01 12:38:41;;;;;;;24.33;21.40;;;8.40;99.90;;;;;;10381048;28;20217;-79
2022/12/01 12:43:52;;;;;;;24.60;21.90;;;8.50;99.90;;;;;;10365501;28;20198;-79
2022/12/01 12:49:06;;;;;;;23.83;20.77;;;8.60;99.90;;;;;;10379693;28;20218;-79
2022/12/01 12:54:18;;;;;;;22.93;20.57;;;8.70;99.90;;;;;;10379036;28;20194;-79
2022/12/01 12:59:26;;;;;;;22.77;20.47;;;8.70;99.90;;;;;;10360040;28;20655;-79
2022/12/01 13:04:36;;;;;;;21.23;19.03;;;8.80;99.90;;;;;;10361702;28;20218;-79
2022/12/01 13:09:42;;;;;;;21.50;19.20;;;8.80;99.90;;;;;;10361683;28;20231;-79
2022/12/01 13:14:49;;;;;;;28.03;21.50;;;8.70;99.90;;;;;;10375171;28;20660;-79
2022/12/01 13:19:51;;;;;;;22.93;20.53;;;8.70;99.90;;;;;;10374442;28;20698;-79
2022/12/01 13:24:53;;;;;;;28.07;24.20;;;8.70;99.90;;;;;;10374253;28;20198;-80
2022/12/01 13:29:57;;;;;;;23.40;20.90;;;8.70;99.90;;;;;;10380375;28;20313;-79
2022/12/01 13:35:01;;;;;;;23.17;20.67;;;8.70;99.90;;;;;;10385242;28;20282;-80
2022/12/01 13:40:09;;;;;;;26.13;19.87;;;8.70;99.90;;;;;;10365599;28;20261;-79
2022/12/01 13:45:18;;;;;;;23.80;19.67;;;8.70;99.90;;;;;;10371632;28;20595;-79
2022/12/01 13:50:59;;;;;;;22.33;20.03;;;8.60;99.90;;;;;;10385703;28;20250;-79
2022/12/01 13:56:25;;;;;;;22.93;20.50;;;8.60;99.90;;;;;;10384452;28;20629;-80
2022/12/01 14:01:48;;;;;;;21.13;18.93;;;8.60;99.90;;;;;;10366734;28;20229;-80
2022/12/01 14:07:20;;;;;;;23.57;19.37;;;8.60;99.90;;;;;;10366471;28;20206;-79
2022/12/01 14:12:27;;;;;;;21.10;18.80;;;8.50;99.90;;;;;;10357589;28;20218;-80
2022/12/01 14:17:33;;;;;;;21.00;18.80;;;8.50;99.90;;;;;;10386777;28;20332;-79
2022/12/01 14:22:38;;;;;;;28.30;20.40;;;8.50;99.90;;;;;;10383865;28;20218;-80
2022/12/01 14:27:43;;;;;;;22.50;20.10;;;8.40;99.90;;;;;;10382709;28;20199;-80
2022/12/01 14:32:46;;;;;;;23.27;20.17;;;8.40;99.90;;;;;;10382635;28;20222;-80
2022/12/01 14:37:49;;;;;;;23.73;20.77;;;8.40;99.90;;;;;;10382508;28;20191;-79
2022/12/01 14:48:21;;;;;;;23.37;19.97;;;8.50;99.90;;;;;;10362445;28;20716;-80
2022/12/01 14:53:27;;;;;;;24.50;20.53;;;8.40;99.90;;;;;;10383988;28;20222;-80
2022/12/01 14:58:31;;;;;;;23.07;20.60;;;8.40;99.90;;;;;;10383122;28;20198;-80
2022/12/01 15:03:38;;;;;;;23.40;20.30;;;8.40;99.90;;;;;;10386480;28;20256;-80
2022/12/01 15:08:40;;;;;;;24.13;20.40;;;8.40;99.90;;;;;;10356614;28;20269;-80
2022/12/01 15:13:48;;;;;;;23.50;20.90;;;8.40;99.90;;;;;;10387283;28;20210;-80
2022/12/01 15:18:52;;;;;;;21.33;18.97;;;8.40;99.90;;;;;;10388225;28;20280;-80
2022/12/01 15:23:56;;;;;;;22.07;19.20;;;8.40;99.90;;;;;;10371479;28;20202;-80
2022/12/01 15:29:13;;;;;;;23.87;20.13;;;8.40;99.90;;;;;;10353431;28;20553;-80
2022/12/01 15:34:18;;;;;;;24.13;19.53;;;8.40;99.90;;;;;;10365955;28;20226;-80
2022/12/01 15:39:26;;;;;;;23.13;20.00;;;8.50;99.90;;;;;;10370426;28;20207;-80
2022/12/01 15:44:32;;;;;;;24.23;21.53;;;8.50;99.90;;;;;;10385477;28;20211;-80
2022/12/01 15:49:47;;;;;;;21.37;19.07;;;8.50;99.90;;;;;;10368330;28;20349;-80
2022/12/01 15:54:50;;;;;;;21.67;19.47;;;8.40;99.90;;;;;;10383208;28;20589;-80
2022/12/01 15:59:54;;;;;;;20.20;18.10;;;8.50;99.90;;;;;;10379944;28;20281;-80
2022/12/01 16:05:04;;;;;;;24.00;19.10;;;8.50;99.90;;;;;;10363716;28;20257;-80
2022/12/01 16:10:09;;;;;;;24.07;21.40;;;8.50;99.90;;;;;;10365823;28;20218;-80
2022/12/01 16:15:17;;;;;;;22.10;19.70;;;8.50;99.90;;;;;;10380238;28;20210;-81
2022/12/01 16:20:26;;;;;;;23.10;20.60;;;8.50;99.90;;;;;;10363221;28;20459;-80
2022/12/01 16:25:33;;;;;;;22.00;19.60;;;8.50;99.90;;;;;;10381844;28;20239;-80
2022/12/01 16:30:37;;;;;;;23.00;19.00;;;8.50;99.90;;;;;;10364762;28;20240;-82
2022/12/01 16:35:40;;;;;;;23.80;20.00;;;8.40;99.90;;;;;;10381841;28;20624;-82
2022/12/01 16:40:43;;;;;;;22.63;20.00;;;8.40;99.90;;;;;;10365449;28;20226;-82
2022/12/01 16:45:49;;;;;;;26.10;22.63;;;8.40;99.90;;;;;;10363788;28;20665;-83
2022/12/01 16:50:54;;;;;;;25.93;21.67;;;8.40;99.90;;;;;;10373785;28;20591;-82
2022/12/01 16:55:57;;;;;;;24.33;21.73;;;8.40;99.90;;;;;;10375568;28;20200;-83
2022/12/01 17:00:59;;;;;;;27.53;22.20;;;8.40;99.90;;;;;;10367615;28;20242;-82
2022/12/01 17:06:04;;;;;;;26.60;22.27;;;8.40;99.90;;;;;;10343341;28;20246;-81
2022/12/01 17:11:06;;;;;;;25.40;20.77;;;8.40;99.90;;;;;;10376319;28;20324;-81
2022/12/01 17:16:29;;;;;;;35.60;29.30;;;8.50;99.90;;;;;;10366440;28;20211;-82
2022/12/01 17:21:33;;;;;;;28.33;22.37;;;8.50;99.90;;;;;;10389226;28;20662;-82
2022/12/01 17:26:35;;;;;;;26.77;22.90;;;8.50;99.90;;;;;;10379043;28;20194;-82
2022/12/01 17:31:37;;;;;;;26.03;21.83;;;8.50;99.90;;;;;;10375249;28;20280;-82
2022/12/01 17:36:41;;;;;;;25.27;22.63;;;8.50;99.90;;;;;;10389164;28;20277;-80
2022/12/01 17:41:43;;;;;;;23.13;20.63;;;8.50;99.90;;;;;;10392183;28;20218;-79
2022/12/01 17:46:45;;;;;;;24.77;21.60;;;8.50;99.90;;;;;;10400329;28;20198;-80
2022/12/01 17:51:49;;;;;;;24.80;22.10;;;8.50;99.90;;;;;;10389648;28;20226;-80
2022/12/01 17:56:53;;;;;;;23.70;21.20;;;8.50;99.90;;;;;;10398854;28;20210;-80
2022/12/01 18:01:55;;;;;;;22.67;20.27;;;8.50;99.90;;;;;;10400731;28;20223;-80
2022/12/01 18:06:59;;;;;;;24.53;22.00;;;8.50;99.90;;;;;;10392482;28;20233;-79
2022/12/01 18:12:01;;;;;;;23.60;21.10;;;8.50;99.90;;;;;;10387333;28;20491;-80
2022/12/01 18:17:05;;;;;;;26.07;23.27;;;8.50;99.90;;;;;;10371230;28;20245;-79
2022/12/01 18:22:08;;;;;;;24.60;21.20;;;8.50;99.90;;;;;;10365091;28;20265;-79
2022/12/01 18:27:10;;;;;;;23.83;21.20;;;8.50;99.90;;;;;;10380633;28;20202;-79
2022/12/01 18:32:13;;;;;;;24.17;21.67;;;8.50;99.90;;;;;;10385602;28;20729;-79
2022/12/01 18:37:16;;;;;;;25.20;22.40;;;8.50;99.90;;;;;;10376828;28;20234;-79
2022/12/01 18:42:18;;;;;;;26.63;22.60;;;8.50;99.90;;;;;;10359299;28;20260;-80
2022/12/01 18:47:20;;;;;;;24.00;20.50;;;8.50;99.90;;;;;;10392966;28;20288;-80
2022/12/01 18:52:23;;;;;;;24.77;21.87;;;8.50;99.90;;;;;;10382648;28;20237;-80
2022/12/01 18:57:26;;;;;;;24.43;21.60;;;8.50;99.90;;;;;;10375020;28;20686;-80
2022/12/01 19:02:28;;;;;;;23.63;21.00;;;8.50;99.90;;;;;;10358162;28;20636;-79
2022/12/01 19:07:31;;;;;;;24.57;21.53;;;8.50;99.90;;;;;;10361690;28;20238;-80
2022/12/01 19:12:34;;;;;;;23.47;20.97;;;8.50;99.90;;;;;;10362504;23;20241;-78
2022/12/01 19:17:36;;;;;;;25.17;22.20;;;8.50;99.90;;;;;;10359652;28;20203;-78
2022/12/01 19:22:39;;;;;;;23.07;20.60;;;8.50;99.90;;;;;;10368958;28;20756;-81
2022/12/01 19:27:42;;;;;;;23.33;20.90;;;8.50;99.90;;;;;;10328571;28;20203;-77
2022/12/01 19:32:44;;;;;;;23.20;20.77;;;8.50;99.90;;;;;;10348995;28;20227;-80
2022/12/01 19:37:47;;;;;;;24.07;21.47;;;8.50;99.90;;;;;;10351842;28;20207;-77
2022/12/01 19:42:50;;;;;;;23.00;20.60;;;8.50;99.90;;;;;;10343621;28;20211;-80
2022/12/01 19:47:52;;;;;;;22.90;20.50;;;8.50;99.90;;;;;;10320762;28;20215;-80
2022/12/01 19:52:55;;;;;;;24.43;21.60;;;8.50;99.90;;;;;;10313347;28;20223;-79
2022/12/01 19:57:58;;;;;;;25.50;22.73;;;8.50;99.90;;;;;;10294982;28;20196;-78
2022/12/01 20:03:00;;;;;;;28.37;25.20;;;8.50;99.90;;;;;;10320047;28;20226;-79
2022/12/01 20:08:04;;;;;;;25.30;22.73;;;8.50;99.90;;;;;;10313186;28;20203;-78
2022/12/01 20:13:06;;;;;;;25.00;21.53;;;8.50;99.90;;;;;;10306624;28;20227;-79
2022/12/01 20:18:11;;;;;;;25.00;22.40;;;8.50;99.90;;;;;;10295685;28;20638;-79
2022/12/01 20:23:14;;;;;;;24.63;22.10;;;8.50;99.90;;;;;;10310221;28;20235;-82
2022/12/01 20:28:17;;;;;;;25.70;22.93;;;8.50;99.90;;;;;;10309621;28;20620;-79
2022/12/01 20:33:19;;;;;;;28.43;24.87;;;8.40;99.90;;;;;;10324570;28;20223;-76
2022/12/01 20:38:22;;;;;;;28.07;23.50;;;8.40;99.90;;;;;;10318541;28;20230;-78
2022/12/01 20:43:24;;;;;;;27.37;22.47;;;8.50;99.90;;;;;;10331228;28;20219;-80
2022/12/01 20:48:27;;;;;;;25.20;22.30;;;8.50;99.90;;;;;;10336892;28;20214;-77
2022/12/01 20:53:30;;;;;;;24.67;21.90;;;8.40;99.90;;;;;;10318097;28;20250;-80
2022/12/01 20:58:33;;;;;;;24.60;22.00;;;8.40;99.90;;;;;;10306347;28;20220;-79
2022/12/01 21:03:35;;;;;;;26.83;22.23;;;8.50;99.90;;;;;;10298989;28;20215;-79
2022/12/01 21:08:40;;;;;;;24.27;21.67;;;8.50;99.90;;;;;;10333761;28;20667;-79
2022/12/01 21:13:42;;;;;;;25.77;21.90;;;8.50;99.90;;;;;;10331695;28;20330;-79
2022/12/01 21:18:50;;;;;;;24.57;21.97;;;8.50;99.90;;;;;;10312251;28;20659;-82
2022/12/01 21:24:10;;;;;;;24.53;21.93;;;8.50;99.90;;;;;;10314899;28;20207;-79
2022/12/01 21:29:21;;;;;;;24.73;22.07;;;8.50;99.90;;;;;;10311121;28;20199;-79
2022/12/01 21:34:24;;;;;;;28.47;25.43;;;8.50;99.90;;;;;;10334067;28;20302;-79
2022/12/01 21:39:30;;;;;;;26.90;23.93;;;8.50;99.90;;;;;;10330430;28;20592;-78
2022/12/01 21:44:36;;;;;;;25.80;22.90;;;8.50;99.90;;;;;;10316417;28;20192;-77
2022/12/01 21:49:43;;;;;;;24.77;22.13;;;8.40;99.90;;;;;;10312924;28;20306;-78
2022/12/01 21:54:47;;;;;;;26.33;23.40;;;8.40;99.90;;;;;;10309366;28;20206;-79
2022/12/01 21:59:49;;;;;;;26.33;23.50;;;8.40;99.90;;;;;;10318870;28;21268;-78
2022/12/01 22:04:51;;;;;;;25.70;23.20;;;8.40;99.90;;;;;;10316184;28;20199;-77
2022/12/01 22:09:55;;;;;;;25.60;22.90;;;8.40;99.90;;;;;;10317525;28;20305;-78
2022/12/01 22:15:01;;;;;;;27.47;24.47;;;8.40;99.90;;;;;;10314598;28;20258;-77
2022/12/01 22:20:20;;;;;;;29.07;24.07;;;8.40;99.90;;;;;;10329971;28;20222;-77
2022/12/01 22:25:26;;;;;;;27.10;23.00;;;8.40;99.90;;;;;;10297699;28;20230;-79
2022/12/01 22:30:28;;;;;;;24.93;22.23;;;8.50;99.90;;;;;;10304853;28;20266;-76
2022/12/01 22:35:34;;;;;;;25.23;22.27;;;8.50;99.90;;;;;;10316121;28;20270;-79
2022/12/01 22:40:43;;;;;;;26.33;23.50;;;8.50;99.90;;;;;;10317587;28;20734;-76
2022/12/01 22:45:49;;;;;;;29.87;24.27;;;8.50;99.90;;;;;;10313811;28;20202;-80
2022/12/01 22:50:54;;;;;;;30.57;26.30;;;8.50;99.90;;;;;;10287050;28;20282;-81
2022/12/01 22:56:07;;;;;;;25.33;22.63;;;8.50;99.90;;;;;;10286620;28;20203;-78
2022/12/01 23:01:20;;;;;;;28.03;24.43;;;8.50;99.90;;;;;;10292193;28;20354;-81
2022/12/01 23:06:48;;;;;;;26.03;23.23;;;8.50;99.90;;;;;;10320694;28;20254;-81
2022/12/01 23:11:54;;;;;;;26.83;23.40;;;8.50;99.90;;;;;;10302243;28;20246;-79
2022/12/01 23:17:07;;;;;;;26.67;23.70;;;8.50;99.90;;;;;;10308869;28;20295;-80
2022/12/01 23:22:10;;;;;;;26.90;23.57;;;8.50;99.90;;;;;;10309420;28;20208;-81
2022/12/01 23:27:15;;;;;;;26.77;23.70;;;8.50;99.90;;;;;;10294597;28;20202;-81
2022/12/01 23:33:34;;;;;;;25.53;22.83;;;8.50;99.90;;;;;;10325438;28;20470;-77
2022/12/01 23:38:41;;;;;;;28.90;24.80;;;8.50;99.90;;;;;;10250611;28;20278;-79
2022/12/01 23:43:45;;;;;;;26.30;23.60;;;8.50;99.90;;;;;;10333278;28;20269;-79
2022/12/01 23:48:50;;;;;;;27.10;24.00;;;8.50;99.90;;;;;;10325956;28;20211;-78
2022/12/01 23:53:55;;;;;;;26.57;23.67;;;8.40;99.90;;;;;;10320152;28;20636;-78
2022/12/01 23:59:01;;;;;;;28.63;25.10;;;8.40;99.90;;;;;;10332409;28;20206;-80
